Time;durP1;ratioP1;P1;durP2;ratioP2;P2;SDS_P1;SDS_P2;PMS_P1;PMS_P2;Temp;Humidity;BMP_temperature;BMP_pressure;BME280_temperature;BME280_humidity;BME280_pressure;Samples;Min_cycle;Max_cycle;Signal;HPM_P1;HPM_P2
2022/11/09 00:00:20;;;;;;;53.90;23.00;;;;;;;4.09;73.79;100181.84;24493;1342;3027782;-70
2022/11/09 00:02:50;;;;;;;62.00;27.80;;;;;;;4.15;72.90;100182.75;24547;1335;3028732;-73
2022/11/09 00:05:19;;;;;;;53.90;23.60;;;;;;;3.91;72.69;100186.74;24673;1334;3028110;-72
2022/11/09 00:07:48;;;;;;;63.20;28.80;;;;;;;3.84;73.05;100181.86;24568;1333;3048934;-74
2022/11/09 00:10:18;;;;;;;70.80;30.10;;;;;;;3.60;73.61;100184.63;24566;1335;3026896;-74
2022/11/09 00:12:47;;;;;;;65.70;29.70;;;;;;;3.35;74.69;100189.96;24549;1334;3027613;-70
2022/11/09 00:15:16;;;;;;;60.10;26.70;;;;;;;3.26;75.25;100193.42;24548;1328;3047989;-71
2022/11/09 00:17:45;;;;;;;57.30;26.80;;;;;;;3.31;75.23;100202.15;24565;1335;3026732;-72
2022/11/09 00:20:14;;;;;;;58.50;26.40;;;;;;;3.33;75.00;100196.93;24515;1333;3053009;-71
2022/11/09 00:22:48;;;;;;;60.50;29.40;;;;;;;3.19;75.45;100196.35;24571;1335;3026922;-70
2022/11/09 00:25:17;;;;;;;63.50;27.90;;;;;;;3.07;76.09;100196.89;24546;1334;3026984;-72
2022/11/09 00:27:49;;;;;;;64.60;28.80;;;;;;;2.98;76.43;100192.57;24533;1341;3026182;-72
2022/11/09 00:30:20;;;;;;;61.60;29.80;;;;;;;2.80;76.86;100193.56;24530;1331;3027062;-72
2022/11/09 00:32:50;;;;;;;57.70;27.40;;;;;;;2.74;77.22;100190.89;24572;1335;3026568;-76
2022/11/09 00:35:19;;;;;;;67.30;28.50;;;;;;;2.70;77.65;100188.04;24540;1342;3029843;-71
2022/11/09 00:37:49;;;;;;;51.80;22.30;;;;;;;2.56;78.15;100184.44;24527;1325;3026168;-71
2022/11/09 00:40:18;;;;;;;45.50;19.00;;;;;;;3.11;76.78;100184.01;24572;1327;3052395;-71
2022/11/09 00:42:47;;;;;;;55.50;23.30;;;;;;;3.67;74.38;100180.33;24573;1332;3026933;-70
2022/11/09 00:45:19;;;;;;;55.80;24.60;;;;;;;3.79;73.45;100182.84;24610;1329;3056342;-71
2022/11/09 00:47:48;;;;;;;59.70;26.40;;;;;;;3.70;73.30;100184.92;24538;1334;3026531;-72
2022/11/09 00:50:19;;;;;;;59.20;27.30;;;;;;;3.52;74.03;100185.49;24571;1327;3026149;-71
2022/11/09 00:52:48;;;;;;;54.70;25.10;;;;;;;3.38;74.31;100188.02;24521;1336;3028432;-71
2022/11/09 00:55:19;;;;;;;48.50;23.70;;;;;;;3.20;74.86;100185.59;24449;1333;3052418;-72
2022/11/09 00:57:50;;;;;;;55.80;26.00;;;;;;;3.11;75.43;100185.23;24555;1334;3027617;-72
2022/11/09 01:00:22;;;;;;;52.30;24.80;;;;;;;2.91;76.13;100180.23;24558;1332;3027239;-72
2022/11/09 01:02:51;;;;;;;55.50;25.50;;;;;;;2.89;76.45;100177.14;24522;1336;3027488;-71
2022/11/09 01:05:20;;;;;;;63.60;27.10;;;;;;;2.77;76.73;100175.80;24568;1326;3028097;-72
2022/11/09 01:07:51;;;;;;;64.60;28.90;;;;;;;2.78;77.05;100175.60;24554;1325;3027541;-72
2022/11/09 01:10:20;;;;;;;63.40;26.30;;;;;;;2.70;77.10;100176.27;24484;1333;3028502;-70
2022/11/09 01:12:49;;;;;;;60.70;26.40;;;;;;;2.66;77.42;100180.64;24479;1336;3028633;-71
2022/11/09 01:15:21;;;;;;;59.80;26.70;;;;;;;2.59;77.50;100181.46;24508;1336;3028201;-72
2022/11/09 01:17:51;;;;;;;64.80;27.10;;;;;;;2.59;78.06;100180.06;24506;1342;3028819;-69
2022/11/09 01:20:21;;;;;;;59.80;24.60;;;;;;;2.56;77.90;100181.85;24528;1332;3025927;-71
2022/11/09 01:22:50;;;;;;;57.30;21.80;;;;;;;3.04;76.53;100181.71;24512;1333;3028554;-70
2022/11/09 01:25:21;;;;;;;62.20;25.30;;;;;;;3.59;74.24;100182.90;24507;1342;3052835;-71
2022/11/09 01:27:50;;;;;;;62.20;26.80;;;;;;;3.72;73.50;100184.56;24552;1325;3028754;-71
2022/11/09 01:30:20;;;;;;;67.50;28.00;;;;;;;3.66;73.40;100185.36;24521;1325;3026495;-72
2022/11/09 01:32:49;;;;;;;70.70;29.40;;;;;;;3.48;73.97;100191.45;24606;1326;3053050;-72
2022/11/09 01:35:18;;;;;;;68.30;28.60;;;;;;;3.31;74.53;100197.14;24528;1326;3029159;-73
2022/11/09 01:37:48;;;;;;;67.40;28.80;;;;;;;3.19;74.90;100202.20;24483;1329;3052696;-72
2022/11/09 01:40:16;;;;;;;62.60;29.10;;;;;;;3.07;75.55;100201.73;24505;1329;3027693;-72
2022/11/09 01:42:46;;;;;;;71.20;29.30;;;;;;;3.01;75.74;100205.84;24530;1335;3057517;-72
2022/11/09 01:45:21;;;;;;;66.90;28.90;;;;;;;2.86;76.56;100205.39;24513;1325;3028309;-68
2022/11/09 01:47:53;;;;;;;72.20;30.70;;;;;;;2.75;77.29;100213.04;24498;1336;3026670;-70
2022/11/09 01:50:30;;;;;;;76.10;30.70;;;;;;;2.70;77.71;100216.04;24520;1325;3028130;-72
2022/11/09 01:53:01;;;;;;;71.10;30.10;;;;;;;2.64;77.88;100214.41;24511;1336;3053142;-70
2022/11/09 01:55:30;;;;;;;75.00;31.30;;;;;;;2.64;78.08;100210.09;24519;1332;3025865;-71
2022/11/09 01:58:03;;;;;;;86.70;32.00;;;;;;;2.61;78.26;100216.36;24457;1325;3024989;-69
2022/11/09 02:00:33;;;;;;;56.10;21.90;;;;;;;2.62;78.47;100224.13;24539;1325;3027037;-72
2022/11/09 02:03:14;;;;;;;50.90;19.80;;;;;;;3.32;76.88;100224.30;24540;1329;3026242;-73
2022/11/09 02:05:43;;;;;;;69.70;25.50;;;;;;;3.93;73.98;100221.90;24506;1322;3052639;-70
2022/11/09 02:08:14;;;;;;;76.70;29.20;;;;;;;4.04;73.20;100223.55;24542;1342;3026533;-71
2022/11/09 02:11:02;;;;;;;70.40;28.90;;;;;;;4.01;73.29;100221.71;24485;1328;3026647;-71
2022/11/09 02:13:36;;;;;;;77.50;29.80;;;;;;;3.88;73.28;100221.99;24503;1332;3052513;-73
2022/11/09 02:16:09;;;;;;;73.60;30.40;;;;;;;3.71;73.81;100216.27;24501;1335;3050502;-70
2022/11/09 02:18:53;;;;;;;72.40;29.80;;;;;;;3.59;74.24;100213.94;24476;1325;3027821;-70
2022/11/09 02:21:26;;;;;;;74.80;31.30;;;;;;;3.41;74.76;100219.98;24497;1339;3050731;-71
2022/11/09 02:23:57;;;;;;;88.30;35.50;;;;;;;3.28;75.46;100215.72;24525;1339;3028067;-71
2022/11/09 02:26:33;;;;;;;85.20;32.50;;;;;;;3.13;76.06;100215.84;24563;1333;3028649;-72
2022/11/09 02:29:04;;;;;;;88.40;33.20;;;;;;;3.15;76.35;100214.40;24507;1342;3054890;-72
2022/11/09 02:31:37;;;;;;;82.20;33.60;;;;;;;3.10;76.67;100216.40;24504;1328;3026939;-71
2022/11/09 02:34:08;;;;;;;93.50;35.60;;;;;;;3.06;77.00;100219.25;24486;1342;3026640;-71
2022/11/09 02:36:39;;;;;;;84.60;33.40;;;;;;;3.00;77.16;100220.38;24478;1334;3050368;-72
2022/11/09 02:39:13;;;;;;;87.50;33.10;;;;;;;3.00;77.61;100220.04;24493;1335;3027932;-70
2022/11/09 02:41:47;;;;;;;72.90;25.70;;;;;;;2.99;77.68;100224.04;24542;1331;3027052;-70
2022/11/09 02:44:16;;;;;;;70.80;25.10;;;;;;;3.48;76.35;100224.52;24505;1331;3057380;-70
2022/11/09 02:46:46;;;;;;;79.40;28.40;;;;;;;4.08;73.93;100224.35;24483;1332;3026267;-71
2022/11/09 02:49:16;;;;;;;90.00;31.60;;;;;;;4.15;73.00;100219.52;24529;1333;3029601;-72
2022/11/09 02:51:47;;;;;;;96.90;35.20;;;;;;;4.02;72.95;100215.64;24468;1328;3025969;-71
2022/11/09 02:54:16;;;;;;;101.10;35.40;;;;;;;3.91;73.48;100218.48;24499;1333;3053159;-70
2022/11/09 02:56:45;;;;;;;102.60;37.80;;;;;;;3.75;73.52;100217.25;24519;1334;3026509;-70
2022/11/09 02:59:14;;;;;;;111.80;36.00;;;;;;;3.56;74.37;100217.98;24483;1332;3055985;-69
2022/11/09 03:01:44;;;;;;;110.00;38.10;;;;;;;3.36;75.18;100219.57;24516;1333;3027340;-69
2022/11/09 03:04:13;;;;;;;111.70;37.50;;;;;;;3.22;75.75;100216.71;24518;1326;3027233;-70
2022/11/09 03:06:44;;;;;;;104.50;36.60;;;;;;;3.07;76.32;100209.35;24522;1339;3056909;-69
2022/11/09 03:09:16;;;;;;;94.40;36.00;;;;;;;2.96;77.06;100210.25;24492;1332;3026070;-73
2022/11/09 03:11:45;;;;;;;84.00;32.30;;;;;;;2.88;77.20;100213.85;24467;1333;3024958;-70
2022/11/09 03:14:16;;;;;;;81.70;31.70;;;;;;;2.84;77.65;100218.06;24490;1333;3027581;-73
2022/11/09 03:16:53;;;;;;;80.90;31.20;;;;;;;2.82;78.06;100213.95;24539;1332;3052595;-71
2022/11/09 03:19:22;;;;;;;79.70;30.60;;;;;;;2.83;78.15;100205.95;24564;1333;3027952;-71
2022/11/09 03:21:54;;;;;;;71.00;24.10;;;;;;;2.80;78.15;100218.48;24504;1333;3027923;-69
2022/11/09 03:24:25;;;;;;;57.90;20.20;;;;;;;3.33;77.21;100217.53;24550;1333;3027271;-69
2022/11/09 03:26:57;;;;;;;66.90;25.80;;;;;;;3.94;74.77;100218.39;24534;1342;3027478;-72
2022/11/09 03:29:26;;;;;;;84.30;31.10;;;;;;;4.15;73.69;100219.86;24496;1335;3025747;-71
2022/11/09 03:31:57;;;;;;;89.90;34.20;;;;;;;4.07;73.68;100228.18;24573;1340;3049129;-71
2022/11/09 03:34:26;;;;;;;80.30;31.10;;;;;;;3.91;73.99;100225.22;24529;1325;3026917;-71
2022/11/09 03:36:55;;;;;;;97.10;35.40;;;;;;;3.76;74.48;100223.98;24494;1329;3067973;-68
2022/11/09 03:39:24;;;;;;;93.00;33.10;;;;;;;3.59;74.95;100220.50;24546;1326;3026662;-73
2022/11/09 03:41:53;;;;;;;91.90;33.00;;;;;;;3.51;75.58;100221.35;24447;1329;3026353;-70
2022/11/09 03:44:22;;;;;;;100.30;35.40;;;;;;;3.45;75.99;100215.05;24493;1327;3069518;-70
2022/11/09 03:46:52;;;;;;;90.20;32.10;;;;;;;3.41;76.07;100214.80;24525;1333;3026467;-71
2022/11/09 03:49:22;;;;;;;100.20;33.70;;;;;;;3.32;76.32;100217.03;24525;1326;3026779;-75
2022/11/09 03:51:51;;;;;;;97.20;34.60;;;;;;;3.28;76.77;100216.77;24495;1326;3070215;-72
2022/11/09 03:54:20;;;;;;;99.80;34.20;;;;;;;3.20;76.85;100220.20;24563;1333;3027742;-73
2022/11/09 03:56:50;;;;;;;112.30;37.10;;;;;;;3.12;77.32;100222.42;24495;1332;3050485;-71
2022/11/09 03:59:19;;;;;;;102.50;37.30;;;;;;;3.07;77.37;100233.06;24605;1332;3028168;-75
2022/11/09 04:01:49;;;;;;;96.30;30.10;;;;;;;3.05;77.25;100233.98;24554;1332;3052329;-73
2022/11/09 04:04:18;;;;;;;90.20;26.10;;;;;;;3.51;76.03;100238.13;24514;1333;3026298;-74
2022/11/09 04:06:49;;;;;;;98.60;31.20;;;;;;;4.19;73.49;100239.20;24590;1326;3050477;-74
2022/11/09 04:09:18;;;;;;;108.10;34.50;;;;;;;4.30;72.66;100242.61;24576;1322;3026836;-72
2022/11/09 04:11:47;;;;;;;117.30;39.80;;;;;;;4.22;72.68;100247.45;24587;1325;3053057;-71
2022/11/09 04:14:16;;;;;;;117.40;36.10;;;;;;;4.07;73.11;100245.86;24525;1332;3027475;-68
2022/11/09 04:16:45;;;;;;;98.80;35.30;;;;;;;4.00;73.51;100248.97;24558;1335;3053787;-73
2022/11/09 04:19:14;;;;;;;103.50;34.30;;;;;;;3.89;73.97;100249.88;24564;1326;3027482;-74
2022/11/09 04:21:43;;;;;;;103.60;35.90;;;;;;;3.78;74.17;100249.59;24505;1335;3056836;-70
2022/11/09 04:24:13;;;;;;;97.70;34.60;;;;;;;3.66;74.59;100253.98;24591;1333;3027306;-73
2022/11/09 04:26:42;;;;;;;116.00;35.40;;;;;;;3.59;75.04;100256.37;24554;1341;3049423;-74
2022/11/09 04:29:11;;;;;;;105.20;35.00;;;;;;;3.51;75.48;100254.11;24586;1334;3026886;-72
2022/11/09 04:31:40;;;;;;;101.80;35.70;;;;;;;3.45;75.79;100258.53;24539;1326;3069614;-73
2022/11/09 04:34:09;;;;;;;97.80;35.90;;;;;;;3.41;76.00;100260.86;24489;1333;3028251;-74
2022/11/09 04:36:38;;;;;;;97.50;35.00;;;;;;;3.37;76.53;100261.98;24556;1326;3028211;-70
2022/11/09 04:39:07;;;;;;;93.50;33.70;;;;;;;3.34;76.60;100259.27;24506;1332;3069939;-72
2022/11/09 04:41:37;;;;;;;99.60;36.20;;;;;;;3.33;76.70;100263.44;24493;1333;3027248;-73
2022/11/09 04:44:06;;;;;;;84.90;27.00;;;;;;;3.34;76.59;100265.32;24540;1335;3027139;-68
2022/11/09 04:46:35;;;;;;;63.80;21.90;;;;;;;3.88;75.17;100270.35;24522;1325;3029427;-70
2022/11/09 04:49:04;;;;;;;75.10;28.40;;;;;;;4.44;72.75;100269.17;24557;1325;3049499;-69
2022/11/09 04:51:33;;;;;;;85.10;31.50;;;;;;;4.60;71.94;100266.38;24542;1339;3025792;-74
2022/11/09 04:54:02;;;;;;;89.70;34.10;;;;;;;4.50;71.89;100273.89;24486;1326;3067454;-73
2022/11/09 04:56:31;;;;;;;89.80;36.10;;;;;;;4.40;72.27;100276.36;24536;1325;3026944;-72
2022/11/09 04:59:02;;;;;;;88.10;33.10;;;;;;;4.20;72.62;100273.84;24499;1318;3051047;-72
2022/11/09 05:01:31;;;;;;;82.10;32.30;;;;;;;4.09;73.19;100277.04;24547;1325;3028840;-72
2022/11/09 05:04:00;;;;;;;75.70;32.10;;;;;;;3.92;73.69;100278.61;24507;1329;3053638;-72
2022/11/09 05:06:32;;;;;;;74.00;31.20;;;;;;;3.80;73.93;100284.56;24541;1333;3027492;-71
2022/11/09 05:09:04;;;;;;;72.20;28.10;;;;;;;3.72;74.24;100288.34;24560;1333;3052403;-80
2022/11/09 05:11:34;;;;;;;66.20;26.80;;;;;;;3.62;74.67;100289.23;24545;1343;3028966;-75
2022/11/09 05:14:03;;;;;;;59.20;27.10;;;;;;;3.55;75.15;100293.53;24546;1326;3028146;-71
2022/11/09 05:16:33;;;;;;;59.70;25.70;;;;;;;3.50;75.09;100294.83;24517;1329;3027499;-73
2022/11/09 05:19:02;;;;;;;59.20;25.50;;;;;;;3.44;75.15;100297.00;24538;1326;3026542;-73
2022/11/09 05:21:31;;;;;;;58.00;24.40;;;;;;;3.38;75.14;100298.84;24552;1333;3049106;-69
2022/11/09 05:24:01;;;;;;;61.50;26.30;;;;;;;3.32;75.30;100300.67;24482;1333;3029875;-68
2022/11/09 05:26:33;;;;;;;51.10;22.50;;;;;;;3.25;75.57;100300.79;24582;1326;3051812;-70
2022/11/09 05:29:05;;;;;;;52.10;23.60;;;;;;;3.21;75.85;100307.45;24564;1332;3029366;-69
2022/11/09 05:31:35;;;;;;;53.50;24.40;;;;;;;3.21;75.89;100311.26;24516;1326;3026242;-70
2022/11/09 05:34:05;;;;;;;49.60;23.10;;;;;;;3.18;75.61;100313.56;24541;1336;3026808;-70
2022/11/09 05:36:35;;;;;;;41.30;16.90;;;;;;;3.14;75.91;100315.87;24564;1340;3026982;-69
2022/11/09 05:39:05;;;;;;;41.20;15.30;;;;;;;3.71;74.54;100316.43;24514;1336;3027977;-71
2022/11/09 05:41:35;;;;;;;39.50;18.30;;;;;;;4.37;72.01;100318.92;24556;1331;3028707;-68
2022/11/09 05:44:04;;;;;;;42.10;20.40;;;;;;;4.59;71.02;100321.42;24594;1332;3026618;-69
2022/11/09 05:46:33;;;;;;;50.40;23.20;;;;;;;4.47;70.64;100324.43;24533;1327;3053358;-69
2022/11/09 05:49:02;;;;;;;49.30;23.00;;;;;;;4.28;71.14;100329.88;24539;1326;3027139;-69
2022/11/09 05:51:31;;;;;;;50.00;22.20;;;;;;;4.20;71.73;100330.91;24570;1331;3057032;-71
2022/11/09 05:54:00;;;;;;;52.70;23.30;;;;;;;4.08;71.99;100330.98;24535;1342;3026446;-69
2022/11/09 05:56:29;;;;;;;49.60;23.80;;;;;;;4.02;72.42;100333.69;24543;1333;3050511;-73
2022/11/09 05:58:59;;;;;;;48.40;22.80;;;;;;;3.92;72.58;100332.50;24543;1325;3026071;-71
2022/11/09 06:01:28;;;;;;;46.20;24.10;;;;;;;3.84;72.91;100331.61;24549;1333;3026952;-73
2022/11/09 06:03:58;;;;;;;49.40;22.60;;;;;;;3.81;73.23;100330.80;24491;1336;3050999;-73
2022/11/09 06:06:28;;;;;;;45.60;22.20;;;;;;;3.73;73.64;100328.88;24588;1335;3028348;-70
2022/11/09 06:08:59;;;;;;;49.20;23.10;;;;;;;3.66;73.96;100326.58;24607;1326;3068387;-73
2022/11/09 06:11:28;;;;;;;50.40;23.20;;;;;;;3.72;73.91;100328.73;24524;1334;3028778;-69
2022/11/09 06:14:00;;;;;;;45.40;21.70;;;;;;;3.77;73.50;100334.02;24538;1333;3028184;-70
2022/11/09 06:16:30;;;;;;;50.60;22.60;;;;;;;3.71;73.61;100332.20;24525;1326;3026431;-73
2022/11/09 06:18:59;;;;;;;52.70;23.00;;;;;;;3.69;73.62;100338.12;24524;1332;3025938;-69
2022/11/09 06:21:30;;;;;;;52.30;22.70;;;;;;;3.73;73.69;100338.41;24528;1334;3057478;-74
2022/11/09 06:23:59;;;;;;;46.60;22.60;;;;;;;3.74;73.40;100339.09;24517;1332;3026409;-69
2022/11/09 06:26:28;;;;;;;48.10;21.60;;;;;;;3.74;73.33;100339.78;24582;1333;3048997;-69
2022/11/09 06:28:57;;;;;;;51.50;23.50;;;;;;;3.70;73.56;100343.84;24489;1325;3028373;-74
2022/11/09 06:31:27;;;;;;;50.90;22.50;;;;;;;3.71;73.73;100340.52;24532;1327;3069363;-72
2022/11/09 06:33:56;;;;;;;50.20;22.60;;;;;;;3.75;73.43;100340.28;24537;1337;3027622;-72
2022/11/09 06:36:25;;;;;;;51.60;22.60;;;;;;;3.79;73.38;100339.16;24626;1326;3026637;-71
2022/11/09 06:38:53;;;;;;;49.50;24.30;;;;;;;3.77;73.30;100341.96;24515;1327;3068361;-70
2022/11/09 06:41:23;;;;;;;54.30;23.90;;;;;;;3.77;73.52;100341.27;24563;1326;3026303;-70
2022/11/09 06:43:52;;;;;;;52.50;23.10;;;;;;;3.89;73.16;100344.52;24545;1333;3049150;-73
2022/11/09 06:46:21;;;;;;;51.40;22.60;;;;;;;3.92;73.13;100344.30;24560;1319;3025820;-70
2022/11/09 06:48:50;;;;;;;53.60;23.40;;;;;;;3.95;72.86;100341.63;24525;1333;3052137;-70
2022/11/09 06:51:19;;;;;;;49.90;22.90;;;;;;;3.95;72.72;100342.67;24515;1334;3026999;-70
2022/11/09 06:53:48;;;;;;;48.10;22.70;;;;;;;3.92;73.06;100342.20;24520;1326;3028315;-71
2022/11/09 06:56:17;;;;;;;49.00;23.00;;;;;;;3.94;72.69;100338.53;24511;1342;3052922;-70
2022/11/09 06:58:48;;;;;;;50.60;22.80;;;;;;;3.98;72.64;100340.71;24554;1334;3026204;-73
2022/11/09 07:01:18;;;;;;;48.90;23.20;;;;;;;3.94;72.78;100339.57;24473;1335;3027638;-74
2022/11/09 07:03:47;;;;;;;51.00;22.50;;;;;;;3.99;72.84;100338.25;24545;1326;3027207;-70
2022/11/09 07:06:16;;;;;;;47.40;21.10;;;;;;;4.06;72.54;100340.89;24586;1335;3048521;-74
2022/11/09 07:08:45;;;;;;;50.10;22.30;;;;;;;4.15;72.62;100342.28;24521;1319;3027040;-72
2022/11/09 07:11:15;;;;;;;53.10;22.80;;;;;;;4.12;72.35;100342.70;24496;1327;3052757;-70
2022/11/09 07:13:46;;;;;;;46.40;21.10;;;;;;;4.21;72.36;100345.29;24547;1333;3029612;-74
2022/11/09 07:16:16;;;;;;;48.00;21.90;;;;;;;4.21;72.37;100342.51;24471;1335;3030451;-73
2022/11/09 07:18:45;;;;;;;45.70;23.80;;;;;;;4.21;72.48;100343.91;24672;1335;3028202;-74
2022/11/09 07:21:14;;;;;;;50.80;24.10;;;;;;;4.28;72.30;100348.42;24504;1333;3049436;-70
2022/11/09 07:23:46;;;;;;;53.80;24.40;;;;;;;4.35;71.98;100348.98;24819;1330;3026043;-70
2022/11/09 07:26:15;;;;;;;50.20;23.20;;;;;;;4.38;71.72;100350.14;24560;1324;3027702;-71
2022/11/09 07:28:44;;;;;;;52.10;23.30;;;;;;;4.43;71.52;100354.55;24510;1326;3026528;-70
2022/11/09 07:31:13;;;;;;;53.60;23.20;;;;;;;4.49;71.33;100352.67;24556;1332;3029187;-68
2022/11/09 07:33:42;;;;;;;52.60;23.80;;;;;;;4.44;71.35;100349.31;24545;1325;3050165;-70
2022/11/09 07:36:11;;;;;;;54.80;26.70;;;;;;;4.46;71.45;100350.83;24614;1333;3026072;-71
2022/11/09 07:38:41;;;;;;;51.30;24.10;;;;;;;4.46;71.35;100351.18;24566;1331;3067997;-72
2022/11/09 07:41:10;;;;;;;49.90;24.60;;;;;;;4.55;71.07;100352.71;24558;1333;3028602;-74
2022/11/09 07:43:39;;;;;;;57.60;25.10;;;;;;;4.63;70.79;100351.86;24581;1332;3049666;-74
2022/11/09 07:46:07;;;;;;;51.20;24.60;;;;;;;4.68;70.76;100356.07;24548;1334;3025887;-71
2022/11/09 07:48:37;;;;;;;51.60;24.20;;;;;;;4.78;70.55;100356.39;24588;1334;3053943;-73
2022/11/09 07:51:06;;;;;;;51.80;24.70;;;;;;;4.86;70.25;100354.80;24569;1330;3029294;-67
2022/11/09 07:53:37;;;;;;;51.10;26.10;;;;;;;4.90;70.28;100360.64;24560;1317;3053342;-70
2022/11/09 07:56:06;;;;;;;57.40;29.00;;;;;;;4.99;70.03;100361.64;24549;1324;3025785;-68
2022/11/09 07:58:36;;;;;;;61.60;28.10;;;;;;;5.00;69.81;100362.31;24467;1334;3028317;-69
2022/11/09 08:01:07;;;;;;;57.20;26.80;;;;;;;5.04;69.65;100362.20;24547;1328;3027334;-73
2022/11/09 08:03:36;;;;;;;56.40;27.20;;;;;;;5.15;69.52;100363.69;24483;1326;3027230;-70
2022/11/09 08:06:05;;;;;;;56.60;27.00;;;;;;;5.20;69.30;100367.05;24505;1335;3026030;-71
2022/11/09 08:08:35;;;;;;;49.30;24.30;;;;;;;5.30;69.14;100368.70;24510;1335;3069603;-70
2022/11/09 08:11:04;;;;;;;48.30;23.50;;;;;;;5.33;68.90;100368.83;24459;1336;3028586;-73
2022/11/09 08:13:33;;;;;;;46.80;23.30;;;;;;;5.31;69.10;100371.13;24527;1328;3048687;-68
2022/11/09 08:16:03;;;;;;;41.80;20.70;;;;;;;5.38;68.68;100374.24;24491;1335;3029339;-72
2022/11/09 08:18:32;;;;;;;41.90;20.10;;;;;;;5.43;68.28;100380.55;24512;1326;3027993;-71
2022/11/09 08:21:02;;;;;;;46.40;22.70;;;;;;;5.43;68.39;100381.61;24526;1339;3025909;-71
2022/11/09 08:23:31;;;;;;;47.50;22.70;;;;;;;5.43;68.50;100388.55;24511;1328;3068907;-71
2022/11/09 08:26:04;;;;;;;47.20;22.30;;;;;;;5.55;68.49;100385.84;24530;1333;3027155;-70
2022/11/09 08:28:33;;;;;;;47.40;22.40;;;;;;;5.65;67.98;100386.60;24549;1336;3049760;-73
2022/11/09 08:31:06;;;;;;;51.70;23.40;;;;;;;5.65;68.08;100386.44;24498;1333;3029227;-70
2022/11/09 08:33:37;;;;;;;49.70;23.40;;;;;;;5.65;67.82;100387.84;24554;1334;3027400;-68
2022/11/09 08:36:11;;;;;;;51.50;22.90;;;;;;;5.70;67.93;100389.78;24516;1329;3025831;-70
2022/11/09 08:38:40;;;;;;;46.20;21.30;;;;;;;5.80;67.08;100386.23;24538;1332;3027604;-69
2022/11/09 08:41:09;;;;;;;46.20;21.10;;;;;;;5.80;67.06;100386.93;24536;1333;3026333;-73
2022/11/09 08:43:39;;;;;;;50.40;22.00;;;;;;;5.85;66.99;100382.79;24495;1335;3057269;-71
2022/11/09 08:46:08;;;;;;;51.90;23.20;;;;;;;5.90;66.99;100389.25;24503;1335;3027624;-75
2022/11/09 08:48:37;;;;;;;50.20;23.00;;;;;;;5.91;66.94;100386.45;24517;1327;3025089;-76
2022/11/09 08:51:07;;;;;;;53.30;23.80;;;;;;;5.91;67.05;100388.20;24561;1331;3056307;-73
2022/11/09 08:53:36;;;;;;;50.60;22.40;;;;;;;5.97;66.86;100385.64;24556;1328;3028812;-75
2022/11/09 08:56:06;;;;;;;52.10;23.20;;;;;;;6.00;66.67;100384.17;24480;1336;3049211;-73
2022/11/09 08:58:36;;;;;;;56.00;24.70;;;;;;;5.99;66.48;100385.38;24513;1335;3029092;-70
2022/11/09 09:01:09;;;;;;;56.90;25.60;;;;;;;5.99;66.73;100384.00;24513;1325;3030153;-71
2022/11/09 09:03:39;;;;;;;49.70;23.90;;;;;;;6.00;66.97;100383.99;24636;1335;3053481;-73
2022/11/09 09:06:08;;;;;;;55.70;25.30;;;;;;;5.97;67.17;100384.58;24532;1328;3027370;-74
2022/11/09 09:08:38;;;;;;;55.30;23.30;;;;;;;6.04;67.04;100381.63;24518;1333;3025905;-71
2022/11/09 09:11:07;;;;;;;61.10;27.20;;;;;;;6.05;67.09;100382.64;24532;1329;3054346;-72
2022/11/09 09:13:37;;;;;;;58.70;24.70;;;;;;;6.05;67.35;100384.71;24557;1329;3026732;-71
2022/11/09 09:16:13;;;;;;;56.90;24.70;;;;;;;6.11;66.89;100383.02;24555;1333;3052430;-74
2022/11/09 09:18:43;;;;;;;60.40;26.00;;;;;;;6.14;66.90;100383.61;24574;1339;3026406;-70
2022/11/09 09:21:13;;;;;;;55.90;25.90;;;;;;;6.16;66.71;100383.39;24550;1333;3028226;-71
2022/11/09 09:23:42;;;;;;;59.40;25.80;;;;;;;6.23;66.55;100386.66;24497;1315;3027595;-70
2022/11/09 09:26:14;;;;;;;59.00;26.60;;;;;;;6.26;66.41;100382.58;24547;1335;3048948;-69
2022/11/09 09:28:43;;;;;;;60.80;26.60;;;;;;;6.29;66.33;100382.31;24554;1329;3027121;-72
2022/11/09 09:31:14;;;;;;;57.90;26.70;;;;;;;6.30;66.33;100381.43;24488;1328;3026240;-72
2022/11/09 09:33:44;;;;;;;63.00;27.40;;;;;;;6.34;66.20;100381.84;24531;1339;3026908;-72
2022/11/09 09:36:16;;;;;;;57.20;26.10;;;;;;;6.52;66.05;100376.80;24521;1335;3029617;-71
2022/11/09 09:38:49;;;;;;;60.20;26.20;;;;;;;6.54;65.69;100376.23;24517;1327;3025480;-72
2022/11/09 09:41:26;;;;;;;65.50;27.50;;;;;;;6.49;65.75;100374.64;24554;1325;3050670;-68
2022/11/09 09:44:01;;;;;;;61.00;26.00;;;;;;;6.52;65.72;100375.60;24545;1334;3052835;-71
2022/11/09 09:46:42;;;;;;;60.00;25.20;;;;;;;6.66;65.57;100378.98;24521;1341;3049796;-70
2022/11/09 09:49:26;;;;;;;55.60;25.20;;;;;;;6.67;65.29;100382.44;24512;1324;3070692;-70
2022/11/09 09:51:58;;;;;;;50.50;24.60;;;;;;;6.68;64.85;100378.91;24534;1339;3050188;-71
2022/11/09 09:54:34;;;;;;;55.90;24.30;;;;;;;6.70;64.88;100378.69;24530;1334;3025990;-71
2022/11/09 09:57:17;;;;;;;53.70;23.30;;;;;;;6.75;64.97;100375.25;24561;1335;3051291;-72
2022/11/09 09:59:51;;;;;;;47.30;22.10;;;;;;;6.82;64.20;100375.02;24557;1333;3054085;-71
2022/11/09 10:02:33;;;;;;;50.40;22.50;;;;;;;6.83;64.40;100374.31;24555;1333;3051770;-69
2022/11/09 10:05:07;;;;;;;44.50;21.50;;;;;;;6.84;64.04;100377.05;24516;1331;3053126;-69
2022/11/09 10:07:45;;;;;;;39.30;20.10;;;;;;;6.82;64.02;100375.55;24528;1341;3049500;-72
2022/11/09 10:10:20;;;;;;;38.00;20.20;;;;;;;6.90;63.79;100376.19;24531;1333;3070370;-70
2022/11/09 10:13:29;;;;;;;41.80;20.00;;;;;;;6.98;63.56;100373.85;23924;1339;3056490;-72
2022/11/09 10:16:33;;;;;;;40.70;20.60;;;;;;;6.98;63.22;100372.11;24541;1335;3049178;-72
2022/11/09 10:19:18;;;;;;;43.80;21.20;;;;;;;7.01;63.06;100369.23;24545;1326;3070360;-69
2022/11/09 10:22:02;;;;;;;43.60;22.80;;;;;;;7.04;62.93;100371.23;24503;1335;3050153;-68
2022/11/09 10:24:50;;;;;;;48.20;22.40;;;;;;;7.06;62.72;100366.80;24510;1333;3057374;-71
2022/11/09 10:27:59;;;;;;;43.30;21.20;;;;;;;7.01;63.12;100374.10;24458;1333;3052892;-70
2022/11/09 10:30:31;;;;;;;44.50;21.70;;;;;;;6.98;63.05;100372.97;24551;1339;3053343;-70
2022/11/09 10:33:10;;;;;;;44.00;21.40;;;;;;;6.96;63.06;100371.11;24573;1326;3027479;-68
2022/11/09 10:36:08;;;;;;;43.80;22.80;;;;;;;6.97;62.95;100372.98;24587;1333;3052396;-68
2022/11/09 10:38:41;;;;;;;38.00;19.90;;;;;;;6.94;62.64;100369.96;24605;1327;3052379;-70
2022/11/09 10:41:36;;;;;;;42.60;20.80;;;;;;;6.98;63.09;100364.80;24565;1325;3053366;-70
2022/11/09 10:44:23;;;;;;;41.50;20.10;;;;;;;6.96;62.85;100363.98;24562;1335;3051803;-72
2022/11/09 10:47:13;;;;;;;36.30;18.20;;;;;;;6.93;62.99;100364.95;24490;1327;3051324;-74
2022/11/09 10:50:13;;;;;;;37.40;18.40;;;;;;;7.01;62.81;100360.16;24457;1331;3070020;-71
2022/11/09 10:53:26;;;;;;;34.40;18.30;;;;;;;6.97;62.64;100367.42;24571;1334;3050194;-73
2022/11/09 10:56:15;;;;;;;38.00;18.10;;;;;;;6.93;62.74;100364.42;24524;1333;3057352;-71
2022/11/09 10:59:30;;;;;;;39.00;18.90;;;;;;;6.96;62.38;100363.27;24491;1329;3052746;-71
2022/11/09 11:02:24;;;;;;;37.70;18.10;;;;;;;6.88;62.36;100357.95;24549;1333;3054585;-72
2022/11/09 11:05:18;;;;;;;37.30;18.80;;;;;;;6.90;62.47;100361.54;24510;1331;3051918;-74
2022/11/09 11:08:21;;;;;;;34.60;17.60;;;;;;;6.89;62.27;100357.39;24580;1327;3054607;-73
2022/11/09 11:11:26;;;;;;;36.30;17.30;;;;;;;6.87;62.57;100354.66;24504;1336;3050491;-72
2022/11/09 11:14:33;;;;;;;40.10;18.20;;;;;;;6.92;62.32;100351.91;24513;1332;3068465;-73
2022/11/09 11:17:28;;;;;;;37.70;17.70;;;;;;;6.89;62.49;100347.30;24533;1335;3051265;-69
2022/11/09 11:20:22;;;;;;;38.30;17.80;;;;;;;6.97;62.55;100346.16;24504;1332;3056828;-68
2022/11/09 11:23:18;;;;;;;37.90;18.40;;;;;;;6.94;62.47;100347.31;24506;1333;3053438;-66
2022/11/09 11:26:18;;;;;;;39.20;18.80;;;;;;;6.95;62.74;100347.30;24475;1332;3053916;-67